الصفحة الرئيسية
METAR-TAF:

METAR-TAF

مطار :

Great Barrier Reef Airport

Hamilton Island, أستراليا

دائرة عرض: 20-21-29S, خط طول: 148-57-06E, ارتفاع: 5 متر

مراقبة الطقس الحالي

تاريخ ووقت الإصدار 28 دقيقة قبل الساعة 21:30UTC
ريح 9 عقدة من الجنوب
درجة الحرارة 18°درجة مئوية
الرطوبة 59%
ضغط 1019 hPa
الرؤية 10 كم أو أكثر

METAR: YBHM 252130Z AUTO 18009KT 9999 // NCD 18/10 Q1019 RF00.0/000.0

زمن: 07:58 (21:58 UTC)

توقعات

تاريخ ووقت الإصدار 4ساعات و 58 دقيقة قبل الساعة 17:00UTC
التوقعات صالحة من25 الساعة 18 UTC إلى 26 الساعة 06 UTC
ريح 3 عقدةمن اتجاهات متغيرة
الرؤية 10 كم أو أكثر
الغيوم لا تقل 1500 م ولا وجود لمزنة ركامية السحاب الأسود
من 26 الساعة 0000 UTC
ريح 12 عقدة من الجنوب الشرقي
الرؤية 10 كم أو أكثر
الغيوم لا تقل 1500 م ولا وجود لمزنة ركامية السحاب الأسود

TAF: YBHM 251700Z 2518/2606 VRB03KT CAVOK FM260000 14012KT CAVOK

أرصاد الطقس والتوقعات من أكثر من 4000 مطار (تقارير الطقس للمطار METAR والتنبؤ بالطقس بالمطارTAF).

المحطات المتاحة هي النقط الصفراء والحمراء على الخريطة.

حرك المؤشر فوق النقطة لمعرفة اسم المحطة.

ثم انقر لمعرفة أرصاد وتوقعات الطقس.

لتغيير الخارطة: اضغط على الأزرار الخضراء مع رمز الصليب الأسود للتكبير. على الزر الأخضر مع شرطة للتصغير، أو على الأسهم الخضراء للخرائط المجاورة.


METAR-TAF: